Time;durP1;ratioP1;P1;durP2;ratioP2;P2;SDS_P1;SDS_P2;PMS_P1;PMS_P2;Temp;Humidity;BMP_temperature;BMP_pressure;BME280_temperature;BME280_humidity;BME280_pressure;Samples;Min_cycle;Max_cycle;Signal;HPM_P1;HPM_P2
2023/03/18 00:02:15;;;;;;;9.73;5.33;;;9.90;99.90;;;;;;5058022;28;20210;-76
2023/03/18 00:04:41;;;;;;;8.23;5.47;;;9.90;99.90;;;;;;5063092;28;20279;-75
2023/03/18 00:07:07;;;;;;;12.50;5.63;;;9.90;99.90;;;;;;5049540;28;20697;-76
2023/03/18 00:09:32;;;;;;;7.20;5.50;;;9.90;99.90;;;;;;5058719;28;20674;-77
2023/03/18 00:11:58;;;;;;;9.90;5.77;;;9.90;99.90;;;;;;5062754;28;20692;-77
2023/03/18 00:14:24;;;;;;;8.97;4.83;;;9.90;99.90;;;;;;5063596;28;20220;-77
2023/03/18 00:16:49;;;;;;;11.43;5.17;;;9.90;99.90;;;;;;5057154;28;20621;-75
2023/03/18 00:19:16;;;;;;;9.90;5.43;;;9.90;99.90;;;;;;5068985;28;20241;-76
2023/03/18 00:21:42;;;;;;;8.80;5.00;;;9.80;99.90;;;;;;5049612;28;20299;-76
2023/03/18 00:24:08;;;;;;;9.77;5.27;;;9.90;99.90;;;;;;5054026;28;20660;-77
2023/03/18 00:26:34;;;;;;;11.87;5.37;;;9.80;99.90;;;;;;5065229;28;20210;-77
2023/03/18 00:29:00;;;;;;;9.60;5.80;;;9.80;99.90;;;;;;5053122;28;20218;-74
2023/03/18 00:31:27;;;;;;;8.60;5.70;;;9.80;99.90;;;;;;5061386;28;20190;-75
2023/03/18 00:33:53;;;;;;;9.67;5.40;;;9.70;99.90;;;;;;5059028;28;20215;-76
2023/03/18 00:36:24;;;;;;;8.30;5.43;;;9.80;99.90;;;;;;5047107;28;20227;-77
2023/03/18 00:38:56;;;;;;;8.43;5.53;;;9.80;99.90;;;;;;5062050;28;20233;-77
2023/03/18 00:41:28;;;;;;;11.53;5.57;;;9.80;99.90;;;;;;5058719;28;20221;-77
2023/03/18 00:43:55;;;;;;;11.37;5.10;;;9.70;99.90;;;;;;5045947;28;20195;-76
2023/03/18 00:46:27;;;;;;;8.93;5.37;;;9.70;99.90;;;;;;5046050;28;20205;-75
2023/03/18 00:48:55;;;;;;;12.57;5.23;;;9.70;99.90;;;;;;5047230;28;20210;-77
2023/03/18 00:51:22;;;;;;;9.97;5.50;;;9.60;99.90;;;;;;5061674;28;20582;-77
2023/03/18 00:53:50;;;;;;;8.50;4.77;;;9.60;99.90;;;;;;5067958;28;20207;-77
2023/03/18 00:56:18;;;;;;;11.93;5.33;;;9.50;99.90;;;;;;5064890;28;20219;-75
2023/03/18 00:58:45;;;;;;;10.03;4.97;;;9.50;99.90;;;;;;5067730;28;20230;-77
2023/03/18 01:01:12;;;;;;;10.23;5.20;;;9.50;99.90;;;;;;5053126;28;20182;-76
2023/03/18 01:03:41;;;;;;;10.20;5.93;;;9.50;99.90;;;;;;5064736;28;20258;-77
2023/03/18 01:06:08;;;;;;;9.97;5.00;;;9.50;99.90;;;;;;5050681;28;20229;-76
2023/03/18 01:08:34;;;;;;;7.23;5.17;;;9.50;99.90;;;;;;5046666;28;20216;-77
2023/03/18 01:11:00;;;;;;;8.83;5.17;;;9.50;99.90;;;;;;5053525;28;20211;-77
2023/03/18 01:13:26;;;;;;;10.90;5.73;;;9.40;99.90;;;;;;5064331;28;20232;-76
2023/03/18 01:15:53;;;;;;;8.60;5.07;;;9.50;99.90;;;;;;5066389;28;20588;-77
2023/03/18 01:18:19;;;;;;;11.20;5.00;;;9.40;99.90;;;;;;5048851;28;20303;-76
2023/03/18 01:20:46;;;;;;;10.67;4.90;;;9.40;99.90;;;;;;5065411;28;20203;-77
2023/03/18 01:23:12;;;;;;;9.87;5.97;;;9.40;99.90;;;;;;5050994;28;20215;-77
2023/03/18 01:25:38;;;;;;;14.67;5.77;;;9.40;99.90;;;;;;5065148;28;20172;-77
2023/03/18 01:28:05;;;;;;;9.87;5.07;;;9.40;99.90;;;;;;5051674;28;20607;-74
2023/03/18 01:30:33;;;;;;;9.67;5.13;;;9.40;99.90;;;;;;5062592;28;20208;-76
2023/03/18 01:32:59;;;;;;;8.90;5.10;;;9.40;99.90;;;;;;5054202;28;20213;-77
2023/03/18 01:35:25;;;;;;;7.43;4.77;;;9.40;99.90;;;;;;5048322;28;20210;-76
2023/03/18 01:37:52;;;;;;;12.53;5.90;;;9.40;99.90;;;;;;5050512;28;20197;-76
2023/03/18 01:40:19;;;;;;;8.43;4.90;;;9.30;99.90;;;;;;5064448;28;20184;-74
2023/03/18 01:42:58;;;;;;;9.77;5.00;;;9.40;99.90;;;;;;5064683;28;20199;-77
2023/03/18 01:45:27;;;;;;;7.90;5.00;;;9.40;99.90;;;;;;5058330;28;20207;-76
2023/03/18 01:47:54;;;;;;;8.07;5.27;;;9.40;99.90;;;;;;5047859;28;20291;-77
2023/03/18 01:50:33;;;;;;;11.63;5.17;;;9.30;99.90;;;;;;5048113;28;20203;-76
2023/03/18 01:53:03;;;;;;;7.60;4.63;;;9.30;99.90;;;;;;5063828;28;20219;-77
2023/03/18 01:55:30;;;;;;;5.97;4.73;;;9.40;99.90;;;;;;5065553;28;20182;-76
2023/03/18 01:57:57;;;;;;;9.27;4.80;;;9.30;99.90;;;;;;5063115;28;20207;-75
2023/03/18 02:00:23;;;;;;;10.13;4.97;;;9.30;99.90;;;;;;5060154;28;20216;-77
2023/03/18 02:02:51;;;;;;;10.13;4.83;;;9.30;99.90;;;;;;5047667;28;20590;-77
2023/03/18 02:05:22;;;;;;;7.90;4.93;;;9.30;99.90;;;;;;5061315;28;20268;-77
2023/03/18 02:07:48;;;;;;;8.43;5.07;;;9.30;99.90;;;;;;5040581;28;20221;-76
2023/03/18 02:10:18;;;;;;;9.50;4.73;;;9.30;99.90;;;;;;5064478;28;20183;-77
2023/03/18 02:12:53;;;;;;;7.77;5.30;;;9.30;99.90;;;;;;5063011;28;20209;-77
2023/03/18 02:15:22;;;;;;;8.23;5.33;;;9.30;99.90;;;;;;5061884;28;20290;-74
2023/03/18 02:17:54;;;;;;;10.60;5.67;;;9.30;99.90;;;;;;5047742;28;20237;-76
2023/03/18 02:20:38;;;;;;;7.70;5.03;;;9.30;99.90;;;;;;5050529;28;20256;-74
2023/03/18 02:23:12;;;;;;;8.73;4.80;;;9.20;99.90;;;;;;5040859;28;20740;-76
2023/03/18 02:26:07;;;;;;;6.90;4.53;;;9.20;99.90;;;;;;5067468;28;20172;-77
2023/03/18 02:28:35;;;;;;;12.83;5.10;;;9.20;99.90;;;;;;5058353;28;20215;-76
2023/03/18 02:31:04;;;;;;;10.27;4.90;;;9.30;99.90;;;;;;5063525;28;20207;-75
2023/03/18 02:33:37;;;;;;;9.07;5.13;;;9.20;99.90;;;;;;5047774;23;20251;-81
2023/03/18 02:36:08;;;;;;;8.97;4.97;;;9.30;99.90;;;;;;5041351;28;20218;-81
2023/03/18 02:38:34;;;;;;;6.37;4.80;;;9.20;99.90;;;;;;5037118;28;20204;-80
2023/03/18 02:41:00;;;;;;;11.50;5.20;;;9.20;99.90;;;;;;5034218;28;20234;-80
2023/03/18 02:43:29;;;;;;;8.37;4.67;;;9.20;99.90;;;;;;5036175;28;20252;-81
2023/03/18 02:46:13;;;;;;;9.53;4.67;;;9.10;99.90;;;;;;5037492;28;20211;-80
2023/03/18 02:48:42;;;;;;;8.47;4.67;;;9.20;99.90;;;;;;5016746;28;20619;-80
2023/03/18 02:51:10;;;;;;;9.17;5.33;;;9.20;99.90;;;;;;5020814;28;20200;-81
2023/03/18 02:53:37;;;;;;;10.20;4.87;;;9.10;99.90;;;;;;5027788;28;20225;-82
2023/03/18 02:56:03;;;;;;;11.87;5.40;;;9.20;99.90;;;;;;5045726;28;20226;-82
2023/03/18 02:58:29;;;;;;;8.83;4.80;;;9.20;99.90;;;;;;5033578;28;20185;-81
2023/03/18 03:00:56;;;;;;;11.70;4.90;;;9.10;99.90;;;;;;5034309;28;20702;-82
2023/03/18 03:03:22;;;;;;;9.23;4.50;;;9.10;99.90;;;;;;5034687;28;20216;-80
2023/03/18 03:05:48;;;;;;;7.57;4.43;;;9.10;99.90;;;;;;5031432;28;20200;-81
2023/03/18 03:08:14;;;;;;;10.60;5.23;;;9.10;99.90;;;;;;5033396;28;20275;-81
2023/03/18 03:10:40;;;;;;;9.33;5.10;;;9.10;99.90;;;;;;5030484;28;20170;-81
2023/03/18 03:13:08;;;;;;;10.47;5.27;;;9.10;99.90;;;;;;5018989;28;20203;-79
2023/03/18 03:15:37;;;;;;;10.57;5.63;;;9.10;99.90;;;;;;5033833;28;20209;-81
2023/03/18 03:18:04;;;;;;;7.60;5.03;;;9.10;99.90;;;;;;5022355;28;20292;-81
2023/03/18 03:20:32;;;;;;;10.97;4.97;;;9.00;99.90;;;;;;5012973;28;20209;-80
2023/03/18 03:22:58;;;;;;;9.83;4.83;;;9.00;99.90;;;;;;5039061;28;20223;-82
2023/03/18 03:25:26;;;;;;;9.17;4.40;;;9.10;99.90;;;;;;5019037;28;20208;-80
2023/03/18 03:27:52;;;;;;;10.27;5.37;;;9.00;99.90;;;;;;5021578;28;20247;-81
2023/03/18 03:30:18;;;;;;;10.03;4.90;;;9.00;99.90;;;;;;5030843;28;20215;-81
2023/03/18 03:32:44;;;;;;;9.80;5.07;;;9.10;99.90;;;;;;5032967;28;20589;-81
2023/03/18 03:35:16;;;;;;;7.30;4.73;;;9.10;99.90;;;;;;5032344;28;20208;-81
2023/03/18 03:37:42;;;;;;;5.57;4.13;;;9.10;99.90;;;;;;5013686;28;20197;-79
2023/03/18 03:40:15;;;;;;;7.00;4.40;;;9.10;99.90;;;;;;5033252;28;20176;-81
2023/03/18 03:42:42;;;;;;;9.37;4.83;;;9.20;99.90;;;;;;5013901;28;20726;-81
2023/03/18 03:45:08;;;;;;;10.17;4.80;;;9.10;99.90;;;;;;5026399;28;20240;-80
2023/03/18 03:47:35;;;;;;;9.13;4.70;;;9.10;99.90;;;;;;5020249;28;20220;-81
2023/03/18 03:50:01;;;;;;;6.40;4.20;;;9.10;99.90;;;;;;5013478;28;20209;-80
2023/03/18 03:52:27;;;;;;;8.77;4.87;;;9.20;99.90;;;;;;5030853;28;20276;-79
2023/03/18 03:54:55;;;;;;;7.57;4.73;;;9.10;99.90;;;;;;5021801;28;20233;-81
2023/03/18 03:57:22;;;;;;;6.53;4.63;;;9.10;99.90;;;;;;5033599;28;20207;-81
2023/03/18 03:59:49;;;;;;;12.23;4.97;;;9.20;99.90;;;;;;5037010;28;20207;-80
2023/03/18 04:02:15;;;;;;;8.60;4.73;;;9.20;99.90;;;;;;5021967;28;20244;-81
2023/03/18 04:04:41;;;;;;;13.37;4.90;;;9.30;99.90;;;;;;5035686;28;20208;-80
2023/03/18 04:07:07;;;;;;;9.33;4.80;;;9.20;99.90;;;;;;5041042;28;20323;-81
2023/03/18 04:09:33;;;;;;;9.60;4.80;;;9.20;99.90;;;;;;5032524;28;20235;-80
2023/03/18 04:11:59;;;;;;;10.70;5.50;;;9.20;99.90;;;;;;5033968;28;20204;-80
2023/03/18 04:14:25;;;;;;;10.80;4.67;;;9.20;99.90;;;;;;5030113;28;20760;-81
2023/03/18 04:16:51;;;;;;;9.37;4.80;;;9.20;99.90;;;;;;5023837;28;20307;-82
2023/03/18 04:19:17;;;;;;;7.97;4.80;;;9.20;99.90;;;;;;5034103;28;20179;-80
2023/03/18 04:21:43;;;;;;;8.57;4.40;;;9.20;99.90;;;;;;5033358;28;20204;-81
2023/03/18 04:24:09;;;;;;;9.33;5.17;;;9.20;99.90;;;;;;5041870;28;20284;-82
2023/03/18 04:26:35;;;;;;;9.63;5.03;;;9.20;99.90;;;;;;5048084;28;20226;-82
2023/03/18 04:29:02;;;;;;;9.57;4.57;;;9.20;99.90;;;;;;5038944;28;20287;-81
2023/03/18 04:31:28;;;;;;;7.70;4.73;;;9.10;99.90;;;;;;5033727;28;20169;-81
2023/03/18 04:33:54;;;;;;;6.93;4.33;;;9.20;99.90;;;;;;5033907;28;20255;-81
2023/03/18 04:36:20;;;;;;;8.07;5.50;;;9.20;99.90;;;;;;5032544;28;20212;-80
2023/03/18 04:38:45;;;;;;;11.70;5.27;;;9.20;99.90;;;;;;5037639;28;20219;-81
2023/03/18 04:41:11;;;;;;;7.43;4.73;;;9.20;99.90;;;;;;5037055;28;20216;-81
2023/03/18 04:43:37;;;;;;;9.20;4.70;;;9.20;99.90;;;;;;5019591;28;20201;-81
2023/03/18 04:46:03;;;;;;;7.87;4.73;;;9.20;99.90;;;;;;5024243;28;20216;-81
2023/03/18 04:48:29;;;;;;;10.40;5.47;;;9.20;99.90;;;;;;5035852;28;20696;-80
2023/03/18 04:50:55;;;;;;;8.00;4.60;;;9.20;99.90;;;;;;5036910;28;20248;-81
2023/03/18 04:53:20;;;;;;;10.50;5.10;;;9.10;99.90;;;;;;5033714;28;20219;-81
2023/03/18 04:55:48;;;;;;;14.37;5.40;;;9.10;99.90;;;;;;5032616;28;20185;-81
2023/03/18 04:58:14;;;;;;;8.80;4.77;;;9.10;99.90;;;;;;5034871;28;20185;-81
2023/03/18 05:00:40;;;;;;;8.50;5.40;;;9.10;99.90;;;;;;5034261;28;20418;-81
2023/03/18 05:03:06;;;;;;;8.77;4.73;;;9.10;99.90;;;;;;5035348;28;20209;-79
2023/03/18 05:05:33;;;;;;;8.43;4.90;;;9.00;99.90;;;;;;5034650;28;20257;-82
2023/03/18 05:07:59;;;;;;;9.13;5.53;;;9.00;99.90;;;;;;5023771;28;20216;-81
2023/03/18 05:10:24;;;;;;;11.23;5.53;;;9.00;99.90;;;;;;5037320;28;20177;-80
2023/03/18 05:12:50;;;;;;;11.13;5.53;;;9.00;99.90;;;;;;5036301;28;20209;-80
2023/03/18 05:15:17;;;;;;;12.47;4.93;;;9.00;99.90;;;;;;5034548;28;20205;-80
2023/03/18 05:17:42;;;;;;;11.07;5.17;;;9.00;99.90;;;;;;5011403;28;20209;-80
2023/03/18 05:20:09;;;;;;;9.27;5.20;;;8.90;99.90;;;;;;5037072;28;20216;-81
2023/03/18 05:22:35;;;;;;;8.80;4.60;;;8.90;99.90;;;;;;5033682;28;20228;-81
2023/03/18 05:25:01;;;;;;;11.63;4.80;;;8.90;99.90;;;;;;5033668;28;20219;-81
2023/03/18 05:27:28;;;;;;;9.93;4.73;;;8.90;99.90;;;;;;5028779;28;20209;-81
2023/03/18 05:29:54;;;;;;;8.13;5.30;;;8.90;99.90;;;;;;5032975;28;20682;-80
2023/03/18 05:32:20;;;;;;;11.07;5.30;;;8.90;99.90;;;;;;5016731;28;20216;-78
2023/03/18 05:34:46;;;;;;;9.80;5.23;;;8.90;99.90;;;;;;5026208;28;20188;-80
2023/03/18 05:37:13;;;;;;;8.00;4.97;;;8.80;99.90;;;;;;5031160;28;20180;-80
2023/03/18 05:39:39;;;;;;;8.80;4.83;;;8.90;99.90;;;;;;5030140;28;20236;-81
2023/03/18 05:42:05;;;;;;;9.17;5.53;;;8.90;99.90;;;;;;5035361;28;20223;-77
2023/03/18 05:44:31;;;;;;;9.67;4.93;;;8.90;99.90;;;;;;5016758;28;20216;-80
2023/03/18 05:46:57;;;;;;;9.77;5.20;;;8.90;99.90;;;;;;5018644;28;20215;-81
2023/03/18 05:49:23;;;;;;;9.23;5.30;;;8.90;99.90;;;;;;5031271;28;20757;-81
2023/03/18 05:51:49;;;;;;;10.13;4.97;;;9.00;99.90;;;;;;5019947;28;20291;-80
2023/03/18 05:54:15;;;;;;;15.27;6.40;;;9.00;99.90;;;;;;5019756;28;20586;-81
2023/03/18 05:56:44;;;;;;;8.00;4.53;;;9.00;99.90;;;;;;5019678;28;20222;-80
2023/03/18 05:59:10;;;;;;;10.30;5.00;;;9.00;99.90;;;;;;5033973;28;20607;-82
2023/03/18 06:01:37;;;;;;;9.20;4.57;;;9.10;99.90;;;;;;5034196;28;20185;-81
2023/03/18 06:04:05;;;;;;;13.10;5.37;;;9.10;99.90;;;;;;5021361;28;20208;-81
2023/03/18 06:06:31;;;;;;;10.47;5.17;;;9.10;99.90;;;;;;5033235;28;20204;-81
2023/03/18 06:08:59;;;;;;;9.90;4.83;;;9.10;99.90;;;;;;5031727;28;20205;-82
2023/03/18 06:11:25;;;;;;;10.47;5.50;;;9.20;99.90;;;;;;5031415;28;20271;-81
2023/03/18 06:13:51;;;;;;;10.10;5.43;;;9.30;99.90;;;;;;5019661;28;20346;-80
2023/03/18 06:16:17;;;;;;;9.23;5.00;;;9.30;99.90;;;;;;5047784;28;20182;-82
2023/03/18 06:18:42;;;;;;;9.87;5.47;;;9.20;99.90;;;;;;5031162;28;20212;-82
2023/03/18 06:21:09;;;;;;;8.63;5.03;;;9.30;99.90;;;;;;5019980;28;20209;-81
2023/03/18 06:23:35;;;;;;;9.37;5.00;;;9.30;99.90;;;;;;5029566;28;20227;-79
2023/03/18 06:26:02;;;;;;;12.33;5.30;;;9.40;99.90;;;;;;5014578;28;20222;-81
2023/03/18 06:28:28;;;;;;;7.90;4.83;;;9.40;99.90;;;;;;5034157;28;20207;-81
2023/03/18 06:30:57;;;;;;;11.53;6.20;;;9.50;99.90;;;;;;5011791;28;20299;-80
2023/03/18 06:33:24;;;;;;;16.80;6.13;;;9.50;99.90;;;;;;5029651;28;20793;-80
2023/03/18 06:35:51;;;;;;;9.13;5.10;;;9.50;99.90;;;;;;5028688;28;20205;-80
2023/03/18 06:38:17;;;;;;;9.47;5.37;;;9.40;99.90;;;;;;5030511;28;20212;-80
2023/03/18 06:40:44;;;;;;;9.70;5.63;;;9.50;99.90;;;;;;5031325;28;20187;-80
2023/03/18 06:43:10;;;;;;;14.70;5.37;;;9.60;99.90;;;;;;5018403;28;20219;-81
2023/03/18 06:45:37;;;;;;;9.13;5.40;;;9.50;99.90;;;;;;5014929;28;20205;-80
2023/03/18 06:48:03;;;;;;;12.87;5.77;;;9.50;99.90;;;;;;5016827;28;20210;-80
2023/03/18 06:50:30;;;;;;;9.43;5.40;;;9.60;99.90;;;;;;5027494;28;20220;-79
2023/03/18 06:52:57;;;;;;;8.50;5.20;;;9.60;99.90;;;;;;5029122;28;20216;-80
2023/03/18 06:55:26;;;;;;;7.57;4.70;;;9.50;99.90;;;;;;5015780;28;20176;-81
2023/03/18 06:57:52;;;;;;;11.50;5.13;;;9.60;99.90;;;;;;5031757;28;20204;-80
2023/03/18 07:00:19;;;;;;;8.53;5.50;;;9.70;99.90;;;;;;5034381;28;20204;-80
2023/03/18 07:02:44;;;;;;;10.93;5.67;;;10.20;99.90;;;;;;5013728;28;20213;-80
2023/03/18 07:05:11;;;;;;;12.17;5.77;;;10.80;99.90;;;;;;5018917;28;20222;-80
2023/03/18 07:07:38;;;;;;;9.17;5.33;;;11.20;99.90;;;;;;5032306;28;20180;-80
2023/03/18 07:10:06;;;;;;;9.97;5.80;;;11.20;99.90;;;;;;5016601;28;20205;-81
2023/03/18 07:12:32;;;;;;;9.30;5.50;;;11.70;99.90;;;;;;5016841;28;20216;-81
2023/03/18 07:14:57;;;;;;;10.47;5.27;;;11.70;99.90;;;;;;5029256;28;20211;-80
2023/03/18 07:17:23;;;;;;;9.60;5.07;;;11.90;99.90;;;;;;5032585;28;20222;-79
2023/03/18 07:19:48;;;;;;;10.83;5.30;;;11.90;99.90;;;;;;5026083;28;20177;-81
2023/03/18 07:22:16;;;;;;;7.37;5.20;;;12.30;99.90;;;;;;5032067;28;20196;-80
2023/03/18 07:24:44;;;;;;;11.30;6.10;;;12.80;99.90;;;;;;5026575;28;20232;-81
2023/03/18 07:27:12;;;;;;;10.60;5.90;;;13.10;99.90;;;;;;5019758;28;20678;-81
2023/03/18 07:29:38;;;;;;;12.97;9.00;;;13.30;99.90;;;;;;5000583;28;20212;-80
2023/03/18 07:32:04;;;;;;;8.40;5.60;;;13.10;99.90;;;;;;5029488;28;20555;-81
2023/03/18 07:34:30;;;;;;;9.13;5.70;;;13.20;99.90;;;;;;5031249;28;20529;-81
2023/03/18 07:36:56;;;;;;;10.85;6.75;;;13.40;99.90;;;;;;5027685;28;20212;-80
2023/03/18 07:39:22;;;;;;;8.23;5.57;;;13.40;99.90;;;;;;5019353;28;20567;-81
2023/03/18 07:41:48;;;;;;;9.20;6.00;;;14.00;99.90;;;;;;5015379;28;20224;-81
2023/03/18 07:44:14;;;;;;;9.15;5.70;;;14.90;99.90;;;;;;5031183;28;20312;-81
2023/03/18 07:46:40;;;;;;;8.75;5.95;;;15.70;99.90;;;;;;5020148;28;20192;-80
2023/03/18 07:49:05;;;;;;;11.07;6.15;;;15.90;99.90;;;;;;5039942;28;20197;-78
2023/03/18 07:51:32;;;;;;;9.38;5.57;;;16.80;99.90;;;;;;5026418;28;20238;-78
2023/03/18 07:53:58;;;;;;;9.82;5.22;;;17.80;99.90;;;;;;5025868;28;20221;-78
2023/03/18 07:56:24;;;;;;;10.40;6.95;;;18.00;99.90;;;;;;5025861;28;20243;-80
2023/03/18 07:58:50;;;;;;;9.32;5.90;;;18.40;99.90;;;;;;5042674;28;20184;-80
2023/03/18 08:01:18;;;;;;;8.75;5.57;;;18.40;99.90;;;;;;5029526;28;20184;-79
2023/03/18 08:03:45;;;;;;;12.32;6.85;;;18.80;99.00;;;;;;5042307;28;20292;-78
2023/03/18 08:06:11;;;;;;;10.27;5.63;;;19.20;98.40;;;;;;5040844;28;20298;-80
2023/03/18 08:08:38;;;;;;;9.52;5.75;;;18.50;97.90;;;;;;5042449;28;20196;-80
2023/03/18 08:11:04;;;;;;;9.00;5.22;;;18.20;98.70;;;;;;5031438;28;20223;-79
2023/03/18 08:13:29;;;;;;;7.45;5.20;;;18.30;98.60;;;;;;5030834;28;20226;-78
2023/03/18 08:15:55;;;;;;;7.32;5.07;;;18.70;98.30;;;;;;5045228;28;20228;-80
2023/03/18 08:18:22;;;;;;;8.95;5.85;;;17.90;98.80;;;;;;5043443;28;20619;-78
2023/03/18 08:20:48;;;;;;;9.20;5.22;;;17.90;99.20;;;;;;5023976;28;20598;-80
2023/03/18 08:23:14;;;;;;;7.57;5.22;;;18.00;99.00;;;;;;5032066;28;20205;-81
2023/03/18 08:25:41;;;;;;;6.70;5.28;;;18.80;98.70;;;;;;5016269;28;20184;-81
2023/03/18 08:28:06;;;;;;;8.30;5.40;;;19.20;97.70;;;;;;5016615;28;20271;-81
2023/03/18 08:30:38;;;;;;;9.25;5.40;;;19.80;97.30;;;;;;5016455;28;20246;-81
2023/03/18 08:33:03;;;;;;;7.97;5.45;;;19.90;96.30;;;;;;5014471;28;20941;-78
2023/03/18 08:35:29;;;;;;;7.03;5.05;;;19.60;95.80;;;;;;5014101;28;20224;-80
2023/03/18 08:37:55;;;;;;;8.82;5.18;;;19.00;96.90;;;;;;5027721;28;20192;-80
2023/03/18 08:40:21;;;;;;;7.28;5.05;;;18.40;97.60;;;;;;5028864;28;20168;-79
2023/03/18 08:42:47;;;;;;;7.90;5.22;;;18.10;98.60;;;;;;5025919;28;20234;-78
2023/03/18 08:45:13;;;;;;;7.78;5.05;;;17.20;99.60;;;;;;5012871;28;20331;-79
2023/03/18 08:47:39;;;;;;;9.75;5.30;;;16.60;99.90;;;;;;5029133;28;20242;-79
2023/03/18 08:50:05;;;;;;;8.23;5.13;;;16.10;99.90;;;;;;5029571;28;20209;-78
2023/03/18 08:52:31;;;;;;;7.30;4.45;;;16.20;99.90;;;;;;5030301;28;20200;-78
2023/03/18 08:54:57;;;;;;;5.93;4.50;;;16.80;99.90;;;;;;5028938;28;20221;-80
2023/03/18 08:57:25;;;;;;;8.70;4.95;;;16.80;99.90;;;;;;5006980;28;20219;-80
2023/03/18 08:59:51;;;;;;;10.95;4.95;;;16.40;99.90;;;;;;5025650;28;20228;-79
2023/03/18 09:02:17;;;;;;;9.38;5.10;;;16.70;99.90;;;;;;5025830;28;20255;-79
2023/03/18 09:04:43;;;;;;;11.00;4.93;;;17.10;99.90;;;;;;5026066;28;20212;-77
2023/03/18 09:07:09;;;;;;;7.00;4.75;;;17.40;99.90;;;;;;5023056;28;20175;-78
2023/03/18 09:09:35;;;;;;;11.82;5.72;;;17.40;99.90;;;;;;5020975;28;20212;-77
2023/03/18 09:12:03;;;;;;;9.18;4.95;;;17.10;99.90;;;;;;5023220;28;20287;-77
2023/03/18 09:14:29;;;;;;;8.45;4.97;;;16.90;99.90;;;;;;5013308;28;20235;-77
2023/03/18 09:16:55;;;;;;;8.48;4.95;;;17.10;99.90;;;;;;5030067;28;20173;-78
2023/03/18 09:19:20;;;;;;;10.38;5.22;;;17.40;99.90;;;;;;5013493;28;20183;-78
2023/03/18 09:21:46;;;;;;;6.75;4.15;;;17.80;99.90;;;;;;5024341;28;20209;-78
2023/03/18 09:24:12;;;;;;;6.55;4.28;;;18.10;99.90;;;;;;5016873;28;20212;-77
2023/03/18 09:26:38;;;;;;;8.55;4.80;;;18.30;99.90;;;;;;5033533;28;20566;-78
2023/03/18 09:29:04;;;;;;;6.47;4.70;;;18.10;99.90;;;;;;5028517;28;20216;-78
2023/03/18 09:31:30;;;;;;;8.25;4.70;;;18.10;99.90;;;;;;5015305;28;20184;-79
2023/03/18 09:33:56;;;;;;;7.00;4.13;;;18.70;99.90;;;;;;5025953;28;20590;-78
2023/03/18 09:36:22;;;;;;;9.88;4.65;;;18.80;99.90;;;;;;5017504;28;20231;-77
2023/03/18 09:38:48;;;;;;;9.10;5.00;;;18.50;99.90;;;;;;5031591;28;20630;-78
2023/03/18 09:41:35;;;;;;;6.75;5.05;;;18.50;99.90;;;;;;5027209;28;20267;-78
2023/03/18 09:44:16;;;;;;;7.70;4.40;;;18.60;99.90;;;;;;5014292;28;20600;-78
2023/03/18 09:46:48;;;;;;;9.88;4.93;;;18.40;99.90;;;;;;5018290;28;20185;-78
2023/03/18 09:49:13;;;;;;;7.97;5.05;;;18.50;99.90;;;;;;5024894;28;20410;-78
2023/03/18 09:51:54;;;;;;;8.00;5.30;;;18.40;99.90;;;;;;5030110;28;20209;-77
2023/03/18 09:54:35;;;;;;;8.15;4.70;;;18.30;99.90;;;;;;5026164;28;20278;-78
2023/03/18 09:57:02;;;;;;;6.75;4.47;;;18.40;99.90;;;;;;5018984;28;20200;-78
2023/03/18 09:59:32;;;;;;;8.63;4.25;;;18.90;99.90;;;;;;5029855;28;20212;-78
2023/03/18 10:01:58;;;;;;;6.93;5.03;;;19.30;99.90;;;;;;5025177;28;20227;-79
2023/03/18 10:04:31;;;;;;;7.22;4.75;;;19.40;99.90;;;;;;5028843;28;20257;-78
2023/03/18 10:07:05;;;;;;;10.07;5.45;;;19.40;99.90;;;;;;5028174;28;20209;-78
2023/03/18 10:09:40;;;;;;;8.43;4.30;;;18.90;99.90;;;;;;5031692;28;20224;-80
2023/03/18 10:12:34;;;;;;;10.90;4.88;;;18.50;99.90;;;;;;5014214;28;20243;-78
2023/03/18 10:15:07;;;;;;;10.35;6.72;;;18.30;99.90;;;;;;5015914;28;20267;-79
2023/03/18 10:17:39;;;;;;;8.38;4.72;;;18.40;99.90;;;;;;5013750;28;20231;-79
2023/03/18 10:20:36;;;;;;;10.07;5.18;;;18.70;99.90;;;;;;5014749;28;20212;-77
2023/03/18 10:23:27;;;;;;;9.85;4.53;;;18.70;99.90;;;;;;4979205;28;20247;-79
2023/03/18 10:25:57;;;;;;;6.35;4.60;;;18.90;99.90;;;;;;5012514;28;20656;-79
2023/03/18 10:28:32;;;;;;;8.45;4.32;;;18.70;99.90;;;;;;5032547;28;20184;-78
2023/03/18 10:31:16;;;;;;;5.63;3.97;;;18.60;99.90;;;;;;5031921;28;20222;-79
2023/03/18 10:34:13;;;;;;;8.18;4.03;;;18.30;99.90;;;;;;5031236;28;20235;-80
2023/03/18 10:36:51;;;;;;;6.80;4.60;;;18.40;99.90;;;;;;5011734;28;20230;-78
2023/03/18 10:39:22;;;;;;;10.13;5.13;;;18.80;99.90;;;;;;5029205;28;20216;-79
2023/03/18 10:41:50;;;;;;;8.77;4.68;;;19.00;99.90;;;;;;5012942;28;20219;-78
2023/03/18 10:44:17;;;;;;;7.70;4.30;;;19.00;99.90;;;;;;5013466;28;20750;-79
2023/03/18 10:46:46;;;;;;;10.65;4.90;;;18.70;99.90;;;;;;5011117;28;20184;-78
2023/03/18 10:49:19;;;;;;;9.65;4.50;;;18.40;99.90;;;;;;5024389;28;20192;-78
2023/03/18 10:52:29;;;;;;;10.35;5.18;;;18.20;99.90;;;;;;5027340;28;20221;-78
2023/03/18 10:54:55;;;;;;;9.20;4.75;;;18.70;99.90;;;;;;4971232;28;20219;-78
2023/03/18 10:57:21;;;;;;;10.82;5.82;;;18.60;99.90;;;;;;5013567;28;20212;-78
2023/03/18 10:59:50;;;;;;;10.27;5.05;;;18.70;99.90;;;;;;5021446;28;20296;-78
2023/03/18 11:02:31;;;;;;;8.15;5.22;;;18.60;99.90;;;;;;5024694;28;20311;-77
2023/03/18 11:05:17;;;;;;;5.07;4.03;;;18.40;99.90;;;;;;5026414;28;20292;-78
2023/03/18 11:08:04;;;;;;;8.52;4.38;;;18.40;99.90;;;;;;5008221;28;20180;-79
2023/03/18 11:10:42;;;;;;;5.95;4.00;;;18.60;99.90;;;;;;5007458;28;20633;-78
2023/03/18 11:13:17;;;;;;;7.60;4.78;;;18.70;99.90;;;;;;5010165;28;20213;-78
2023/03/18 11:15:51;;;;;;;7.93;4.75;;;18.40;99.90;;;;;;5011059;28;20211;-78
2023/03/18 11:18:25;;;;;;;7.95;4.78;;;18.50;99.90;;;;;;5013507;28;20208;-77
2023/03/18 11:20:59;;;;;;;9.88;4.97;;;18.10;99.90;;;;;;5021100;28;20711;-77
2023/03/18 11:23:54;;;;;;;9.43;5.13;;;18.20;99.90;;;;;;5024054;28;20303;-79
2023/03/18 11:26:25;;;;;;;6.40;4.25;;;18.10;99.90;;;;;;5021112;28;20220;-78
2023/03/18 11:29:16;;;;;;;9.80;4.88;;;18.10;99.90;;;;;;5023852;28;20731;-77
2023/03/18 11:31:56;;;;;;;11.38;4.53;;;18.20;99.90;;;;;;5005528;28;20184;-78
2023/03/18 11:34:23;;;;;;;8.70;4.20;;;18.00;99.90;;;;;;5011848;28;20189;-77
2023/03/18 11:37:03;;;;;;;8.68;4.55;;;18.00;99.90;;;;;;5025353;28;20702;-79
2023/03/18 11:39:33;;;;;;;7.82;4.22;;;18.00;99.90;;;;;;5026145;28;20235;-78
2023/03/18 11:41:59;;;;;;;9.05;4.35;;;18.20;99.90;;;;;;5005560;28;20274;-77
2023/03/18 11:44:32;;;;;;;7.93;4.53;;;18.10;99.90;;;;;;5022247;28;20213;-78
2023/03/18 11:47:06;;;;;;;6.57;4.00;;;18.20;99.90;;;;;;5009906;28;20254;-77
2023/03/18 11:49:32;;;;;;;9.05;4.50;;;18.40;99.90;;;;;;5026955;28;20183;-79
2023/03/18 11:52:03;;;;;;;7.07;3.42;;;18.70;99.90;;;;;;5020944;28;20285;-78
2023/03/18 11:54:53;;;;;;;11.05;6.85;;;19.00;99.90;;;;;;5021305;28;20704;-77
2023/03/18 11:57:54;;;;;;;10.23;4.03;;;19.20;99.90;;;;;;5029127;28;20219;-77
2023/03/18 12:00:51;;;;;;;6.70;4.03;;;19.00;99.90;;;;;;5024678;28;20280;-77
2023/03/18 12:03:26;;;;;;;9.18;5.28;;;18.90;99.90;;;;;;5008041;28;20220;-78
2023/03/18 12:06:19;;;;;;;8.57;5.32;;;18.30;99.90;;;;;;5023602;28;20631;-78
2023/03/18 12:08:56;;;;;;;8.95;5.63;;;18.30;99.90;;;;;;5009850;28;20203;-77
2023/03/18 12:11:37;;;;;;;9.65;5.22;;;18.30;99.90;;;;;;5024761;28;20212;-79
2023/03/18 12:14:33;;;;;;;6.05;4.55;;;18.30;99.90;;;;;;5020330;28;20211;-78
2023/03/18 12:17:17;;;;;;;12.07;5.07;;;18.50;99.90;;;;;;5008760;28;20204;-77
2023/03/18 12:19:46;;;;;;;5.13;3.63;;;18.70;99.90;;;;;;5002883;28;20562;-76
2023/03/18 12:22:30;;;;;;;6.32;3.60;;;19.00;99.90;;;;;;5011203;28;20189;-77
2023/03/18 12:25:30;;;;;;;8.70;3.70;;;19.00;99.90;;;;;;5025657;28;20216;-79
2023/03/18 12:28:08;;;;;;;5.65;3.67;;;18.90;99.90;;;;;;5025221;28;20211;-78
2023/03/18 12:30:48;;;;;;;5.97;4.10;;;18.80;99.90;;;;;;5028985;28;20204;-78
2023/03/18 12:33:55;;;;;;;8.48;4.10;;;18.90;99.90;;;;;;5024064;28;20217;-79
2023/03/18 12:37:07;;;;;;;9.73;5.65;;;18.90;99.90;;;;;;5028926;28;20220;-79
2023/03/18 12:39:58;;;;;;;6.28;3.55;;;19.10;99.90;;;;;;4968324;28;20598;-77
2023/03/18 12:42:35;;;;;;;7.78;3.50;;;19.20;99.90;;;;;;5023745;28;20216;-79
2023/03/18 12:45:22;;;;;;;7.15;3.70;;;19.20;99.90;;;;;;5022209;28;20213;-78
2023/03/18 12:47:54;;;;;;;5.97;3.60;;;19.30;99.90;;;;;;5028251;28;20204;-79
2023/03/18 12:50:41;;;;;;;6.40;3.20;;;19.40;99.90;;;;;;5015858;28;20208;-76
2023/03/18 12:53:27;;;;;;;8.95;3.80;;;19.30;99.90;;;;;;5030111;28;20224;-78
2023/03/18 12:56:12;;;;;;;7.10;3.65;;;19.20;99.90;;;;;;5014000;28;20177;-78
2023/03/18 12:58:43;;;;;;;9.95;4.00;;;19.10;99.90;;;;;;5026243;28;20552;-79
2023/03/18 13:01:34;;;;;;;8.27;3.55;;;19.00;99.90;;;;;;5014354;28;20178;-79
2023/03/18 13:04:10;;;;;;;7.88;3.90;;;19.10;99.90;;;;;;5028493;28;20212;-77
2023/03/18 13:06:44;;;;;;;8.38;4.57;;;19.00;99.90;;;;;;5026483;28;20547;-78